Appledore, United Kingdom
Current Conditions -  °F | °C
As of 2:50 PM on Thursday 23 Oct 2014 (Local Time) from EGTE Reporting Station
Drizzle Drizzle  
Wind Chill: 61°   Ceiling: 2500
Heat Index: 61°   Visibility: 6mi
Dew Point: 55°   Wind: 12mph
Humidity: 82%   Direction: 200°SSW
Pressure: 30.06"   Gusts: NA
Location:  51.05°N, 4.2°W
Report Text: EGTE 231350Z 20010KT 9999 -DZ FEW010 BKN025 16/13 Q1018
Loading
Personal Weather Stations






























Interactive Weather Map New forecast layout! Learn more

10-Day Weather Forecast

Advertisements
Track Severe Weather on mobile